• Join FlightAware (Why Join?)
  • Login
  • US Flag 
09:20PM EDT


 

Airport Tracker/Info


-or-


 

Live Flight TrackerFlight Track Log ✈ WIG7117 ✈ 24-Sep-2013 ✈ KALB - KSYR

Flight Track Log - Related Links

Times and Time Zones

All times are in EDT time to prevent confusion due to time zone crossing. See the WIG7117 flight status page for this flight to view local times or setup timezone preferences in your user account.

Time Position Orientation Groundspeed Altitude Reporting Facility
EDT Latitude Longitude Course Direction KTS MPH feet Rate Location/Type
10:10PM 42.7592 -73.8031 310° West 68 78 1,200  Level Boston Center
10:11PM 42.7733 -73.8261 310° West 96 110 2,200 960 Climbing Boston Center
10:12PM 42.7811 -73.8686 284° West 131 151 3,200 1,020 Climbing Boston Center
10:13PM 42.7867 -73.9169 279° West 124 143 4,300 1,020 Climbing Boston Center
10:14PM 42.7925 -73.9622 280° West 121 139 5,300 900 Climbing Boston Center
10:15PM 42.8003 -74.0022 285° West 116 133 6,200 840 Climbing Boston Center
10:16PM 42.8100 -74.0533 285° West 124 143 7,000 780 Climbing Boston Center
10:17PM 42.8156 -74.0986 280° West 128 147 7,800 480 Climbing Boston Center
10:18PM 42.8231 -74.1500 281° West 135 155 8,000 120 Climbing Boston Center
10:19PM 42.8328 -74.2039 284° West 147 169 8,100  Climbing Boston Center
10:20PM 42.8403 -74.2581 281° West 144 166 8,100  Level Boston Center
10:20PM 42.8419 -74.2722 279° West 144 166 8,100  Level Boston Center
10:20PM 42.8439 -74.2864 281° West 144 166 8,100  Level Boston Center
10:21PM 42.8533 -74.3406 283° West 145 167 8,100  Level Boston Center
10:22PM 42.8608 -74.3944 281° West 146 168 8,100 -60 Level Boston Center
10:23PM 42.8683 -74.4514 280° West 146 168 8,000 -60 Descending Boston Center
10:24PM 42.8778 -74.5056 283° West 147 169 8,000  Level Boston Center
10:25PM 42.8872 -74.5569 284° West 149 171 8,000  Level Boston Center
10:26PM 42.8922 -74.6139 277° West 148 170 8,000  Level Boston Center
10:27PM 42.9017 -74.6736 282° West 149 171 8,000  Level Boston Center
10:28PM 42.9108 -74.7278 283° West 150 173 8,000  Level Boston Center
10:29PM 42.9203 -74.7878 282° West 151 174 8,000  Level Boston Center
10:30PM 42.9317 -74.8392 287° West 151 174 8,000  Level Boston Center
10:31PM 42.9386 -74.8992 279° West 152 175 8,000  Level Boston Center
10:32PM 42.9478 -74.9561 282° West 151 174 8,000  Level Boston Center
10:33PM 42.9569 -75.0106 283° West 151 174 8,000  Level Boston Center
10:34PM 42.9639 -75.0703 279° West 151 174 8,000  Level Boston Center
10:35PM 42.9731 -75.1303 282° West 152 175 8,000  Level Boston Center
10:36PM 42.9800 -75.1847 280° West 154 177 8,000  Level Boston Center
10:38PM 42.9911 -75.2447 284° West 152 175 8,000  Level Boston Center
10:39PM 42.9981 -75.3017 279° West 154 177 8,000  Level Boston Center
10:40PM 43.0069 -75.3589 282° West 155 178 8,000  Level Boston Center
10:41PM 43.0139 -75.4161 279° West 155 178 8,000  Level Boston Center
10:42PM 43.0206 -75.4789 278° West 156 180 8,000 -360 Level Boston Center
10:43PM 43.0144 -75.5469 263° West 181 208 7,300 -660 Descending Boston Center
10:44PM 43.0086 -75.6119 263° West 178 205 6,700 -600 Descending Boston Center
10:45PM 43.0025 -75.6769 263° West 174 200 6,100 -660 Descending Boston Center
10:46PM 42.9967 -75.7419 263° West 173 199 5,400 -660 Descending Boston Center
10:47PM 42.9925 -75.8069 265° West 170 196 4,800 -600 Descending Boston Center
10:48PM 42.9969 -75.8697 276° West 166 191 4,200 -540 Descending Boston Center
10:49PM 42.9972 -75.9264 270° West 165 190 3,800 -360 Descending Boston Center
10:49PM 42.9997 -75.9861 273° West 157 181 3,600 -120 Descending Boston Center
10:51PM 42.9978 -76.0431 267° West 141 162 3,600 -180 Level Boston Center
10:52PM 43.0150 -76.0894 297° West 142 163 3,300 -540 Descending Boston Center
10:53PM 43.0472 -76.1311 317° Northwest 144 166 2,600 -840 Descending Boston Center
10:54PM 43.0794 -76.1644 323° Northwest 147 169 1,700 -900 Descending Boston Center
10:56PM 43.1000 -76.1000 353° North  Level FlightAware Approximate